• Join FlightAware (Why Join?)
  • Login
  • US Flag 
12:52PM EDT


 

Airport Tracker/Info


-or-


 

Live Flight TrackerFlight Track Log ✈ N873PC ✈ 20-Oct-2013 ✈ KCOE - KBOI

Flight Track Log - Related Links

Times and Time Zones

All times are in EDT time to prevent confusion due to time zone crossing. See the N873PC flight status page for this flight to view local times or setup timezone preferences in your user account.

Time Position Orientation Groundspeed Altitude Reporting Facility
EDT Latitude Longitude Course Direction KTS MPH feet Rate Location/Type
03:30PM 47.6008 -116.7981 176° South 174 200 7,900  Level Seattle Center
03:31PM 47.5528 -116.7858 170° South 173 199 9,500 1,080 Climbing Seattle Center
03:32PM 47.4994 -116.7797 176° South 188 216 10,200 780 Climbing Seattle Center
03:33PM 47.4408 -116.7694 173° South 209 241 11,100 960 Climbing Seattle Center
03:34PM 47.3800 -116.7611 175° South 216 249 12,200 1,020 Climbing Seattle Center
03:35PM 47.3189 -116.7514 174° South 221 254 13,300 1,020 Climbing Seattle Center
03:36PM 47.2572 -116.7417 174° South 222 255 14,300 960 Climbing Seattle Center
03:37PM 47.1944 -116.7325 174° South 226 260 15,300 1,080 Climbing Seattle Center
03:38PM 47.1175 -116.7211 174° South 233 268 16,500 960 Climbing Seattle Center
03:39PM 47.0503 -116.7114 174° South 242 278 17,300 780 Climbing Seattle Center
03:40PM 46.9831 -116.6997 173° South 244 281 18,200 780 Climbing Seattle Center
03:41PM 46.9153 -116.6914 175° South 244 281 19,000 840 Climbing Seattle Center
03:42PM 46.8469 -116.6808 174° South 247 284 20,000 960 Climbing Seattle Center
03:43PM 46.7786 -116.6700 174° South 245 282 21,000 960 Climbing Seattle Center
03:45PM 46.7125 -116.6606 174° South 240 276 22,000 780 Climbing Seattle Center
03:46PM 46.6469 -116.6525 175° South 236 272 22,700 660 Climbing Seattle Center
03:47PM 46.5797 -116.6417 174° South 241 277 23,400 600 Climbing Seattle Center
03:48PM 46.5117 -116.6314 174° South 244 281 24,000 600 Climbing Seattle Center
03:49PM 46.4419 -116.6217 175° South 249 287 24,700 480 Climbing Seattle Center
03:50PM 46.3567 -116.6092 174° South 256 295 25,000 120 Climbing Seattle Center
03:51PM 46.2783 -116.5978 174° South 276 318 25,000  Level Seattle Center
03:52PM 46.1964 -116.5872 175° South 291 335 25,000  Level Seattle Center
03:53PM 46.1147 -116.5758 174° South 294 338 25,000  Level Seattle Center
03:54PM 46.0306 -116.5631 174° South 301 346 25,000  Level Seattle Center
03:55PM 45.9461 -116.5517 175° South 305 351 25,000  Level Seattle Center
03:56PM 45.8622 -116.5394 174° South 303 349 25,000  Level Seattle Center
03:57PM 45.7778 -116.5286 175° South 304 350 25,000  Level Seattle Center
03:58PM 45.6939 -116.5158 174° South 303 349 25,000  Level Seattle Center
03:59PM 45.5950 -116.5011 174° South 304 350 25,000  Level Seattle Center
04:00PM 45.5103 -116.4908 175° South 305 351 25,000  Level Seattle Center
04:01PM 45.4269 -116.4783 174° South 302 348 25,000  Level Seattle Center
04:02PM 45.3431 -116.4675 175° South 301 346 25,000  Level Seattle Center
04:03PM 45.2594 -116.4553 174° South 302 348 25,000  Level Seattle Center
04:04PM 45.1772 -116.4425 174° South 298 343 25,000  Level Seattle Center
04:05PM 45.1100 -116.4336 175° South 302 348 25,000 -360 Level Salt Lake Center
04:06PM 45.0253 -116.4222 175° South 303 349 24,400 -900 Descending Salt Lake Center
04:07PM 44.9353 -116.4097 174° South 318 366 23,200 -1,260 Descending Salt Lake Center
04:08PM 44.8483 -116.3975 174° South 319 367 21,800 -1,140 Descending Salt Lake Center
04:09PM 44.7686 -116.3856 174° South 296 341 20,900 -960 Descending Salt Lake Center
04:10PM 44.6878 -116.3753 175° South 292 336 19,900 -1,260 Descending Salt Lake Center
04:11PM 44.5844 -116.3606 174° South 306 352 18,400 -1,020 Descending Salt Lake Center
04:12PM 44.4997 -116.3494 175° South 309 356 17,800 -840 Descending Salt Lake Center
04:13PM 44.4181 -116.3150 163° South 311 358 16,800 -840 Descending Salt Lake Center
04:14PM 44.3389 -116.2792 162° South 308 354 16,100 -840 Descending Salt Lake Center
04:14PM 44.2919 -116.2397 149° Southeast 292 336 15,600 -900 Descending Salt Lake Center
04:15PM 44.2428 -116.2683 203° Southwest 304 350 15,200 -720 Descending Salt Lake Center
04:15PM 44.2025 -116.2386 152° Southeast 289 333 14,800 -720 Descending Salt Lake Center
04:16PM 44.1617 -116.2633 203° Southwest 296 341 14,500 -720 Descending Salt Lake Center
04:17PM 44.1167 -116.2356 156° South 289 333 14,000 -780 Descending Salt Lake Center
04:17PM 44.0819 -116.2578 205° Southwest 288 331 13,700 -840 Descending Salt Lake Center
04:18PM 44.0253 -116.2350 164° South 286 329 13,100 -780 Descending Salt Lake Center
04:18PM 44.0017 -116.2519 207° Southwest 290 334 12,900 -840 Descending Salt Lake Center
04:19PM 43.9394 -116.2319 167° South 288 331 12,200 -780 Descending Salt Lake Center
04:19PM 43.9219 -116.2464 211° Southwest 288 331 12,100 -780 Descending Salt Lake Center
04:20PM 43.8736 -116.2297 166° South 286 329 11,600 -780 Descending Salt Lake Center
04:20PM 43.8439 -116.2419 197° South 282 325 11,300 -1,020 Descending Salt Lake Center
04:21PM 43.7972 -116.2289 169° South 283 326 10,600 -1,500 Descending Salt Lake Center
04:21PM 43.7497 -116.2353 186° South 282 325 9,800 -1,440 Descending Salt Lake Center
04:21PM 43.7208 -116.2281 170° South 277 319 9,300 -1,800 Descending Salt Lake Center
04:22PM 43.6786 -116.2294 181° South 256 295 8,000 -2,160 Descending Salt Lake Center
04:23PM 43.6342 -116.2106 163° South 234 269 6,500 -1,500 Descending Salt Lake Center
04:23PM 43.6175 -116.2064 170° South 230 265 6,500 -1,620 Level Salt Lake Center
04:24PM 43.5853 -116.1861 155° Southeast 173 199 4,900 -1,860 Descending Salt Lake Center
04:24PM 43.5714 -116.1742 148° Southeast 178 205 4,600 -1,320 Descending Salt Lake Center
04:25PM 43.5542 -116.1842 203° Southwest 86 99 3,600 -300 Descending Salt Lake Center
04:25PM 43.5425 -116.1886 195° South 149 171 4,300 1,740 Climbing Salt Lake Center
04:27PM 43.5500 -116.2167 180° South  Level FlightAware Approximate
04:34PM 43.5644 -116.2229 180° South  Level Estimated